Latest Coastal Weather Observations for Wilsons Promontory

IDT60701

Issued at 9:22 pm EST Thursday 17 August 2017 (issued every 10 minutes, with the page automatically refreshed every 10 minutes)

About coastal observations | Map of coastal stations | Coastal observations for TAS | Marine services | Other Formats
Station Details ID: 085096 Name: WILSONS PROMONTORY LIGHTHOUSE Lat: -39.13 Lon: 146.42 Height: 95.0 m
Data from the previous 72 hours. | See also: Recent months at Wilsons Promontory
Date/Time
EST
Temp
°C
Wind Pressure Rain since
9am
mm
Weather Cloud Vis
km
Sea
Height
m
Swell
Dir  Spd
kts
Gust
kts
hPa Trend Height
m
Period
s
Dir
17/09:00pm 9.5 NW 13 29 999.1 - 8.0 - - - - - - -
17/08:31pm 10.3 WNW 16 37 999.1 - 8.0 - - - - - - -
17/08:30pm 10.4 WNW 14 37 999.0 - 8.0 - - - - - - -
17/08:00pm 10.8 W 18 30 998.7 - 8.0 - - - - - - -
17/07:32pm 10.8 W 20 32 998.8 - 8.0 - - - - - - -
17/07:30pm 10.7 W 19 41 998.8 - 8.0 - - - - - - -
17/07:27pm 10.8 W 21 43 998.9 - 8.0 - - - - - - -
17/07:21pm 10.9 W 33 43 998.3 - 8.0 - - - - - - -
17/07:12pm 10.7 W 21 39 998.5 - 8.0 - - - - - - -
17/07:00pm 10.6 W 16 27 998.8 - 8.0 - - - - - - -
17/06:30pm 10.6 W 28 39 998.3 - 8.0 - - - - - - -
17/06:00pm 10.3 W 28 41 997.8 - 8.0 - - - - - - -
17/05:30pm 10.0 W 28 42 997.6 - 8.0 - - - - - - -
17/05:00pm 8.7 W 22 32 997.7 - 8.0 - - - - - - -
17/04:30pm 9.0 W 29 47 998.1 - 7.2 - - - - - - -
17/04:22pm 9.9 W 27 47 996.6 - 7.2 - - - - - - -
17/04:19pm 10.8 W 25 36 997.1 - 7.2 - - - - - - -
17/04:08pm 10.3 W 15 25 997.6 - 7.2 - - - - - - -
17/04:00pm 10.0 SW 10 18 997.7 - 7.2 - - - - - - -
17/03:44pm 9.7 W 15 27 997.3 - 7.2 - - - - - - -
17/03:30pm 9.5 W 16 23 997.8 - 7.2 - - - - - - -
17/03:01pm 9.0 W 20 30 998.0 - 7.2 - - - - - - -
17/03:00pm 9.0 W 21 30 998.0 - 7.2 - - - - - - -
17/02:43pm 8.6 W 24 44 997.5 - 7.2 - - - - - - -
17/02:31pm 8.9 W 38 48 996.9 - 6.8 - - - - - - -
17/02:30pm 8.9 W 25 48 997.1 - 6.6 - - - - - - -
17/02:00pm 8.8 W 27 46 996.8 - 6.4 - - - - - - -
17/01:43pm 8.8 W 31 41 997.1 - 5.8 - - - - - - -
17/01:40pm 8.7 W 34 41 996.9 - 5.4 - - - - - - -
17/01:32pm 8.3 W 22 33 997.4 - 5.2 - - - - - - -
17/01:30pm 8.2 W 22 31 997.4 - 5.2 - - - - - - -
17/01:18pm 7.8 W 21 34 997.5 - 4.8 - - - - - - -
17/01:06pm 7.7 W 32 44 996.5 - 4.4 - - - - - - -
17/01:00pm 9.9 WNW 21 40 996.1 - 3.4 - - - - - - -
17/12:30pm 9.9 W 15 35 996.8 - 3.4 - - - - - - -
17/12:00pm 9.0 NE 4 9 997.4 - 3.0 - - - - - - -
17/11:30am 8.5 NNW 14 27 997.8 - 2.4 - - - - - - -
17/11:18am 8.4 NNW 18 29 998.0 - 2.0 - - - - - - -
17/11:17am 8.4 NW 20 29 998.0 - 2.0 - - - - - - -
17/11:00am 9.1 NW 9 16 998.5 - 1.2 - - - - - - -
17/10:30am 8.7 WNW 15 30 998.3 - 1.0 - - - - - - -
17/10:17am 8.7 WNW 21 35 998.2 - 1.0 - - - - - - -
17/10:00am 9.6 W 27 39 997.1 - 0.2 - - - - - - -
17/09:59am 10.0 WSW 25 35 997.5 - 0.2 - - - - - - -
17/09:34am 10.7 WNW 15 28 997.9 - 0.0 - - - - - - -
17/09:30am 10.7 WNW 12 28 997.6 - 0.0 - - - - - - -
17/09:05am 10.5 WSW 17 28 998.1 - 0.0 - - - - - - -
17/09:00am 10.5 WNW 13 33 998.2 - 23.8 - - - - - - -
17/08:52am 10.4 WNW 15 33 997.9 - 23.8 - - - - - - -
17/08:38am 9.7 NNW 10 24 998.2 - 23.8 - - - - - - -
17/08:30am 8.8 WNW 21 36 998.1 - 23.8 - - - - - - -
17/08:00am 11.2 W 20 35 998.1 - 18.8 - - - - - - -
17/07:30am 11.1 W 20 34 997.7 - 18.8 - - - - - - -
17/07:00am 11.1 WNW 17 40 997.3 - 18.8 - - - - - - -
17/06:55am 11.1 WNW 15 38 997.3 - 18.8 - - - - - - -
17/06:54am 11.1 NW 13 38 997.5 - 18.8 - - - - - - -
17/06:30am 10.9 W 25 36 997.0 - 18.8 - - - - - - -
17/06:00am 11.2 W 25 44 997.3 - 18.6 - - - - - - -
17/05:53am 11.3 W 32 44 996.5 - 18.6 - - - - - - -
17/05:30am 11.3 W 20 39 996.9 - 18.6 - - - - - - -
17/05:00am 11.4 W 23 41 996.4 - 18.6 - - - - - - -
17/04:30am 11.3 W 24 36 996.3 - 18.6 - - - - - - -
17/04:00am 11.1 W 21 41 995.9 - 18.6 - - - - - - -
17/03:30am 10.7 W 20 39 996.4 - 18.6 - - - - - - -
17/03:00am 10.8 WNW 20 40 996.5 - 18.4 - - - - - - -
17/02:30am 10.8 W 21 38 997.1 - 18.4 - - - - - - -
17/02:00am 9.9 WNW 17 37 997.3 - 18.4 - - - - - - -
17/01:37am 9.5 WNW 28 42 997.0 - 18.4 - - - - - - -
17/01:36am 9.6 W 17 37 997.3 - 18.4 - - - - - - -
17/01:30am 9.7 W 13 31 997.5 - 18.4 - - - - - - -
17/01:13am 9.8 W 27 41 997.8 - 17.8 - - - - - - -
17/01:02am 10.5 W 15 31 997.7 - 15.2 - - - - - - -
17/01:00am 10.6 W 15 24 997.5 - 14.8 - - - - - - -
17/12:30am 10.7 NNW 13 32 997.1 - 13.4 - - - - - - -
17/12:10am 10.9 W 15 26 997.5 - 13.0 - - - - - - -
17/12:00am 11.1 NW 8 15 997.9 - 12.8 - - - - - - -
 
Date/Time
EST
Temp
°C
Wind Pressure Rain since
9am
mm
Weather Cloud Vis
km
Sea
Height
m
Swell
Dir  Spd
kts
Gust
kts
hPa Trend Height
m
Period
s
Dir
16/11:30pm 11.0 N 8 17 998.1 - 12.8 - - - - - - -
16/11:00pm 11.0 NW 7 18 998.3 - 12.8 - - - - - - -
16/10:30pm 10.8 WNW 12 25 998.4 - 12.8 - - - - - - -
16/10:00pm 11.0 W 29 46 997.6 - 12.0 - - - - - - -
16/09:30pm 11.3 W 22 37 997.8 - 11.0 - - - - - - -
16/09:09pm 9.5 W 20 30 998.2 - 10.6 - - - - - - -
16/09:00pm 9.0 W 18 48 998.4 - 10.2 - - - - - - -
16/08:57pm 8.9 WSW 16 52 998.6 - 10.0 - - - - - - -
16/08:49pm 9.8 W 27 52 997.3 - 9.0 - - - - - - -
16/08:48pm 10.6 W 20 39 998.1 - 8.6 - - - - - - -
16/08:37pm 9.7 ENE 7 30 998.2 - 8.0 - - - - - - -
16/08:34pm 9.7 W 20 31 998.0 - 8.0 - - - - - - -
16/08:30pm 9.6 W 23 31 997.9 - 8.0 - - - - - - -
16/08:16pm 8.5 W 24 47 998.2 - 8.0 - - - - - - -
16/08:07pm 8.9 W 35 47 997.7 - 6.6 - - - - - - -
16/08:06pm 9.6 W 22 43 997.9 - 6.2 - - - - - - -
16/08:00pm 9.9 W 18 32 998.0 - 5.4 - - - - - - -
16/07:30pm 12.2 W 29 44 997.2 - 5.0 - - - - - - -
16/07:25pm 12.2 W 30 43 997.0 - 5.0 - - - - - - -
16/07:00pm 12.2 W 16 33 997.4 - 5.0 - - - - - - -
16/06:30pm 11.8 W 23 41 996.9 - 5.0 - - - - - - -
16/06:00pm 11.3 W 29 45 996.5 - 5.0 - - - - - - -
16/05:48pm 12.1 W 31 43 995.8 - 5.0 - - - - - - -
16/05:31pm 11.6 W 20 34 996.3 - 5.0 - - - - - - -
16/05:30pm 11.6 W 19 35 996.4 - 5.0 - - - - - - -
16/05:28pm 11.5 W 19 35 996.3 - 5.0 - - - - - - -
16/05:00pm 10.2 W 31 45 995.6 - 5.0 - - - - - - -
16/04:30pm 12.0 W 31 46 995.2 - 5.0 - - - - - - -
16/04:00pm 11.3 W 32 51 994.2 - 5.0 - - - - - - -
16/03:30pm 12.2 W 25 45 994.2 - 4.8 - - - - - - -
16/03:08pm 12.2 W 24 48 994.3 - 4.8 - - - - - - -
16/03:00pm 12.3 W 34 51 993.9 - 4.8 - - - - - - -
16/02:30pm 11.9 W 30 51 993.3 - 4.8 - - - - - - -
16/02:00pm 11.7 W 27 46 993.0 - 4.8 - - - - - - -
16/01:44pm 10.3 W 27 57 992.9 - 4.8 - - - - - - -
16/01:37pm 10.4 W 38 70 991.8 - 4.8 - - - - - - -
16/01:34pm 10.9 W 51 70 991.3 - 4.6 - - - - - - -
16/01:33pm 11.1 W 33 66 991.1 - 4.6 - - - - - - -
16/01:30pm 11.3 W 31 52 992.4 - 4.6 - - - - - - -
16/01:00pm 10.9 W 26 45 992.3 - 4.6 - - - - - - -
16/12:30pm 11.0 W 24 45 992.4 - 3.2 - - - - - - -
16/12:00pm 10.8 W 27 42 992.8 - 2.4 - - - - - - -
16/11:30am 11.5 W 27 46 991.7 - 2.0 - - - - - - -
16/11:10am 11.3 W 20 55 992.5 - 2.0 - - - - - - -
16/11:00am 10.7 W 33 52 991.8 - 2.0 - - - - - - -
16/10:55am 10.5 W 29 54 991.9 - 2.0 - - - - - - -
16/10:54am 10.5 W 28 54 991.8 - 2.0 - - - - - - -
16/10:50am 10.3 W 41 54 991.1 - 2.0 - - - - - - -
16/10:30am 11.0 W 28 51 991.8 - 1.2 - - - - - - -
16/10:21am 10.8 W 29 51 991.1 - 1.2 - - - - - - -
16/10:00am 10.8 W 24 41 991.4 - 0.4 - - - - - - -
16/09:48am 10.3 W 24 55 991.6 - 0.4 - - - - - - -
16/09:30am 10.9 W 35 54 990.7 - 0.2 - - - - - - -
16/09:28am 11.2 W 38 57 990.3 - 0.2 - - - - - - -
16/09:00am 10.4 W 27 52 990.6 - 21.0 - - - - - - -
16/08:30am 10.9 W 28 54 989.3 - 20.6 - - - - - - -
16/08:29am 10.9 W 28 54 989.1 - 20.6 - - - - - - -
16/08:00am 11.8 W 19 42 989.8 - 19.8 - - - - - - -
16/07:30am 11.8 WNW 17 40 990.1 - 19.8 - - - - - - -
16/07:00am 11.5 WSW 12 29 990.1 - 19.8 - - - - - - -
16/06:30am 11.2 W 13 27 989.7 - 19.8 - - - - - - -
16/06:01am 11.5 W 16 44 989.4 - 19.8 - - - - - - -
16/06:00am 11.5 W 14 44 989.7 - 19.8 - - - - - - -
16/05:35am 11.4 WNW 15 37 989.3 - 19.8 - - - - - - -
16/05:30am 11.4 W 13 31 989.2 - 19.8 - - - - - - -
16/05:23am 11.6 WNW 15 31 989.2 - 19.8 - - - - - - -
16/05:00am 11.7 W 9 19 989.8 - 19.8 - - - - - - -
16/04:31am 12.0 W 17 42 989.7 - 19.8 - - - - - - -
16/04:30am 12.0 W 16 42 989.6 - 19.8 - - - - - - -
16/04:13am 12.0 WNW 15 33 989.9 - 19.8 - - - - - - -
16/04:00am 11.6 WNW 9 18 990.0 - 19.8 - - - - - - -
16/03:31am 11.6 WNW 15 31 990.5 - 19.8 - - - - - - -
16/03:30am 11.6 WNW 14 31 990.4 - 19.8 - - - - - - -
16/03:00am 11.6 WNW 7 20 991.2 - 19.8 - - - - - - -
16/02:30am 11.9 WNW 12 24 991.8 - 19.8 - - - - - - -
16/02:09am 12.1 WNW 15 27 991.7 - 19.8 - - - - - - -
16/02:00am 12.0 WNW 9 18 991.8 - 19.8 - - - - - - -
16/01:30am 11.4 WNW 12 27 992.3 - 19.8 - - - - - - -
16/01:00am 11.0 W 15 25 992.8 - 19.8 - - - - - - -
16/12:30am 10.8 W 16 29 993.6 - 19.6 - - - - - - -
16/12:04am 10.7 W 20 32 993.5 - 18.8 - - - - - - -
16/12:00am 10.7 W 20 29 993.9 - 18.6 - - - - - - -
 
Date/Time
EST
Temp
°C
Wind Pressure Rain since
9am
mm
Weather Cloud Vis
km
Sea
Height
m
Swell
Dir  Spd
kts
Gust
kts
hPa Trend Height
m
Period
s
Dir
15/11:30pm 11.3 W 21 32 993.6 - 15.4 - - - - - - -
15/11:01pm 10.7 W 23 33 994.0 - 12.4 - - - - - - -
15/11:00pm 10.6 W 23 32 994.1 - 12.4 - - - - - - -
15/10:30pm 10.8 W 28 45 994.0 - 8.2 - - - - - - -
15/10:27pm 11.3 W 24 45 993.7 - 6.2 - - - - - - -
15/10:25pm 11.4 W 23 34 994.0 - 6.2 - - - - - - -
15/10:20pm 12.5 W 20 32 994.8 - 6.0 - - - - - - -
15/10:17pm 13.8 WNW 22 32 994.2 - 6.0 - - - - - - -
15/10:00pm 13.7 NW 7 16 994.9 - 6.0 - - - - - - -
15/09:31pm 13.9 W 19 29 995.2 - 6.0 - - - - - - -
15/09:30pm 13.9 W 20 29 995.0 - 6.0 - - - - - - -
15/09:00pm 13.9 WNW 20 38 994.9 - 5.8 - - - - - - -
15/08:30pm 13.8 WNW 15 35 995.5 - 5.8 - - - - - - -
15/08:09pm 13.8 NW 15 32 995.5 - 5.8 - - - - - - -
15/08:00pm 13.8 NW 12 30 996.0 - 5.8 - - - - - - -
15/07:30pm 14.1 NW 18 34 995.6 - 5.6 - - - - - - -
15/07:00pm 14.0 NW 18 37 995.4 - 4.6 - - - - - - -
15/06:30pm 14.2 NW 17 31 996.0 - 3.0 - - - - - - -
15/06:06pm 14.1 NW 21 43 995.6 - 3.0 - - - - - - -
15/06:00pm 14.0 NW 20 33 995.8 - 2.8 - - - - - - -
15/05:30pm 14.1 NNW 17 33 996.0 - 2.6 - - - - - - -
15/05:08pm 14.1 NNW 15 30 995.8 - 2.4 - - - - - - -
15/05:00pm 14.0 NNW 13 26 996.1 - 2.4 - - - - - - -
15/04:33pm 14.1 NNW 15 25 996.0 - 1.6 - - - - - - -
15/04:30pm 14.3 NNW 14 25 996.4 - 1.6 - - - - - - -
15/04:00pm 15.8 NNW 15 32 996.5 - 1.4 - - - - - - -
15/03:30pm 16.0 NNW 18 33 996.6 - 1.4 - - - - - - -
15/03:00pm 15.9 NNW 16 31 996.9 - 1.4 - - - - - - -
15/02:30pm 15.8 NW 16 31 997.1 - 1.4 - - - - - - -
15/02:00pm 15.7 NNW 18 35 997.5 - 1.4 - - - - - - -
15/01:42pm 15.8 NW 20 34 997.2 - 1.4 - - - - - - -
15/01:40pm 16.0 N 9 29 997.5 - 1.4 - - - - - - -
15/01:30pm 16.2 NNW 20 38 997.4 - 1.4 - - - - - - -
15/01:00pm 15.6 NNW 19 43 997.9 - 1.4 - - - - - - -
15/12:30pm 16.2 NNW 18 36 998.6 - 1.2 - - - - - - -
15/12:00pm 16.4 NNW 21 40 999.6 - 1.0 - - - - - - -
15/11:46am 16.4 N 15 32 999.8 - 1.0 - - - - - - -
15/11:30am 16.0 N 15 24 1000.1 - 1.0 - - - - - - -
15/11:00am 15.5 NNW 18 28 1001.2 - 1.0 - - - - - - -
15/10:30am 14.8 NNW 17 34 1002.2 - 0.0 - - - - - - -
15/10:00am 16.4 NNW 16 35 1003.1 - 0.0 - - - - - - -
15/09:35am 16.1 NNW 15 29 1002.8 - 0.0 - - - - - - -
15/09:30am 16.0 NNW 14 29 1003.0 - 0.0 - - - - - - -
15/09:28am 15.9 NW 15 29 1002.8 - 0.0 - - - - - - -
15/09:00am 13.0 N 11 16 1004.2 - 0.0 - - - - - - -
15/08:30am 12.4 NNE 14 17 1004.6 - 0.0 - - - - - - -
15/08:00am 11.6 NNE 15 18 1004.4 - 0.0 - - - - - - -
15/07:30am 12.2 NNE 13 17 1005.3 - 0.0 - - - - - - -
15/07:00am 11.8 NNE 13 17 1005.8 - 0.0 - - - - - - -
15/06:30am 12.0 N 13 18 1006.0 - 0.0 - - - - - - -
15/06:00am 11.4 NNE 14 18 1006.7 - 0.0 - - - - - - -
15/05:30am 10.8 NNE 15 18 1007.0 - 0.0 - - - - - - -
15/05:00am 10.5 NNE 13 16 1007.3 - 0.0 - - - - - - -
15/04:30am 10.9 NNE 13 16 1007.8 - 0.0 - - - - - - -
15/04:00am 11.5 N 8 14 1008.1 - 0.0 - - - - - - -
15/03:30am 13.8 NNW 11 16 1008.6 - 0.0 - - - - - - -
15/03:00am 13.0 NNW 11 15 1009.4 - 0.0 - - - - - - -
15/02:30am 11.2 NE 9 11 1009.6 - 0.0 - - - - - - -
15/02:00am 11.1 NE 10 11 1009.9 - 0.0 - - - - - - -
15/01:30am 10.8 NNE 9 13 1010.4 - 0.0 - - - - - - -
15/01:00am 11.7 N 4 8 1010.8 - 0.0 - - - - - - -
15/12:30am 12.0 WNW 12 15 1010.9 - 0.0 - - - - - - -
15/12:00am 11.8 WNW 12 15 1011.4 - 0.0 - - - - - - -
 
Date/Time
EST
Temp
°C
Wind Pressure Rain since
9am
mm
Weather Cloud Vis
km
Sea
Height
m
Swell
Dir  Spd
kts
Gust
kts
hPa Trend Height
m
Period
s
Dir
14/11:30pm 11.8 WNW 10 13 1011.8 - 0.0 - - - - - - -
14/11:00pm 12.0 WNW 10 14 1012.2 - 0.0 - - - - - - -
14/10:30pm 11.8 WNW 11 14 1012.4 - 0.0 - - - - - - -
14/10:00pm 11.7 WNW 12 14 1012.4 - 0.0 - - - - - - -
14/09:30pm 11.6 WNW 10 13 1012.6 - 0.0 - - - - - - -

Other Formats:

Comma delimited format used in spreadsheet applications
http://www.bom.gov.au/fwo/IDT60701/IDT60701.94893.axf

JavaScript Object Notation format (JSON) in row-major order
http://www.bom.gov.au/fwo/IDT60701/IDT60701.94893.json